sensor_id;sensor_type;location;lat;lon;timestamp;temperature;humidity
12049;DHT22;6085;49.452;8.502;2023-06-22T00:02:14;21.50;99.90
12049;DHT22;6085;49.452;8.502;2023-06-22T00:06:16;21.40;99.90
12049;DHT22;6085;49.452;8.502;2023-06-22T00:10:18;21.40;99.90
12049;DHT22;6085;49.452;8.502;2023-06-22T00:14:21;21.40;99.90
12049;DHT22;6085;49.452;8.502;2023-06-22T00:18:23;21.40;99.90
12049;DHT22;6085;49.452;8.502;2023-06-22T00:22:28;21.40;99.90
12049;DHT22;6085;49.452;8.502;2023-06-22T00:26:30;21.50;99.90
12049;DHT22;6085;49.452;8.502;2023-06-22T00:30:34;21.60;99.90
12049;DHT22;6085;49.452;8.502;2023-06-22T00:34:36;21.90;99.90
12049;DHT22;6085;49.452;8.502;2023-06-22T00:38:38;22.10;99.90
12049;DHT22;6085;49.452;8.502;2023-06-22T00:42:41;22.30;99.90
12049;DHT22;6085;49.452;8.502;2023-06-22T00:46:44;22.60;99.90
12049;DHT22;6085;49.452;8.502;2023-06-22T00:50:46;22.90;99.90
12049;DHT22;6085;49.452;8.502;2023-06-22T00:54:51;23.00;99.90
12049;DHT22;6085;49.452;8.502;2023-06-22T00:58:53;22.70;99.90
12049;DHT22;6085;49.452;8.502;2023-06-22T01:02:59;21.60;99.90
12049;DHT22;6085;49.452;8.502;2023-06-22T01:07:10;20.90;99.90
12049;DHT22;6085;49.452;8.502;2023-06-22T01:11:17;20.60;99.90
12049;DHT22;6085;49.452;8.502;2023-06-22T01:15:25;20.30;99.90
12049;DHT22;6085;49.452;8.502;2023-06-22T01:19:37;20.20;99.90
12049;DHT22;6085;49.452;8.502;2023-06-22T01:23:53;20.10;99.90
12049;DHT22;6085;49.452;8.502;2023-06-22T01:28:05;20.10;99.90
12049;DHT22;6085;49.452;8.502;2023-06-22T01:32:17;20.10;99.90
12049;DHT22;6085;49.452;8.502;2023-06-22T01:36:20;20.10;99.90
12049;DHT22;6085;49.452;8.502;2023-06-22T01:40:23;20.10;99.90
12049;DHT22;6085;49.452;8.502;2023-06-22T01:44:26;20.00;99.90
12049;DHT22;6085;49.452;8.502;2023-06-22T01:48:30;19.90;99.90
12049;DHT22;6085;49.452;8.502;2023-06-22T01:52:32;19.90;99.90
12049;DHT22;6085;49.452;8.502;2023-06-22T01:56:35;19.80;99.90
12049;DHT22;6085;49.452;8.502;2023-06-22T02:00:38;19.70;99.90
12049;DHT22;6085;49.452;8.502;2023-06-22T02:04:48;19.70;99.90
12049;DHT22;6085;49.452;8.502;2023-06-22T02:08:55;19.70;99.90
12049;DHT22;6085;49.452;8.502;2023-06-22T02:12:59;19.70;99.90
12049;DHT22;6085;49.452;8.502;2023-06-22T02:17:02;19.70;99.90
12049;DHT22;6085;49.452;8.502;2023-06-22T02:21:09;19.80;99.90
12049;DHT22;6085;49.452;8.502;2023-06-22T02:25:11;19.90;99.90
12049;DHT22;6085;49.452;8.502;2023-06-22T02:29:13;19.90;99.90
12049;DHT22;6085;49.452;8.502;2023-06-22T02:33:15;19.80;99.90
12049;DHT22;6085;49.452;8.502;2023-06-22T02:37:18;19.80;99.90
12049;DHT22;6085;49.452;8.502;2023-06-22T02:41:20;19.80;99.90
12049;DHT22;6085;49.452;8.502;2023-06-22T02:45:22;19.90;99.90
12049;DHT22;6085;49.452;8.502;2023-06-22T02:49:25;19.90;99.90
12049;DHT22;6085;49.452;8.502;2023-06-22T02:53:28;19.90;99.90
12049;DHT22;6085;49.452;8.502;2023-06-22T02:57:31;19.80;99.90
12049;DHT22;6085;49.452;8.502;2023-06-22T03:01:33;19.70;99.90
12049;DHT22;6085;49.452;8.502;2023-06-22T03:05:40;19.60;99.90
12049;DHT22;6085;49.452;8.502;2023-06-22T03:09:43;19.60;99.90
12049;DHT22;6085;49.452;8.502;2023-06-22T03:13:45;19.50;99.90
12049;DHT22;6085;49.452;8.502;2023-06-22T03:17:47;19.40;99.90
12049;DHT22;6085;49.452;8.502;2023-06-22T03:21:49;19.30;99.90
12049;DHT22;6085;49.452;8.502;2023-06-22T03:25:52;19.30;99.90
12049;DHT22;6085;49.452;8.502;2023-06-22T03:29:57;19.30;99.90
12049;DHT22;6085;49.452;8.502;2023-06-22T03:33:59;19.30;99.90
12049;DHT22;6085;49.452;8.502;2023-06-22T03:38:01;19.30;99.90
12049;DHT22;6085;49.452;8.502;2023-06-22T03:42:06;19.40;99.90
12049;DHT22;6085;49.452;8.502;2023-06-22T03:46:08;19.40;99.90
12049;DHT22;6085;49.452;8.502;2023-06-22T03:50:10;19.40;99.90
12049;DHT22;6085;49.452;8.502;2023-06-22T03:54:12;19.50;99.90
12049;DHT22;6085;49.452;8.502;2023-06-22T03:58:15;19.50;99.90
12049;DHT22;6085;49.452;8.502;2023-06-22T04:02:19;19.50;99.90
12049;DHT22;6085;49.452;8.502;2023-06-22T04:06:21;19.60;99.90
12049;DHT22;6085;49.452;8.502;2023-06-22T04:10:24;19.60;99.90
12049;DHT22;6085;49.452;8.502;2023-06-22T04:14:30;19.60;99.90
12049;DHT22;6085;49.452;8.502;2023-06-22T04:18:33;19.80;99.90
12049;DHT22;6085;49.452;8.502;2023-06-22T04:22:34;19.90;99.90
12049;DHT22;6085;49.452;8.502;2023-06-22T04:26:36;20.00;99.90
12049;DHT22;6085;49.452;8.502;2023-06-22T04:30:43;20.10;99.90
12049;DHT22;6085;49.452;8.502;2023-06-22T04:34:48;20.10;99.90
12049;DHT22;6085;49.452;8.502;2023-06-22T04:38:50;20.20;99.90
12049;DHT22;6085;49.452;8.502;2023-06-22T04:42:53;20.40;99.90
12049;DHT22;6085;49.452;8.502;2023-06-22T04:46:57;20.50;99.90
12049;DHT22;6085;49.452;8.502;2023-06-22T04:51:03;20.70;99.90
12049;DHT22;6085;49.452;8.502;2023-06-22T04:55:06;21.00;99.90
12049;DHT22;6085;49.452;8.502;2023-06-22T04:59:09;21.30;99.90
12049;DHT22;6085;49.452;8.502;2023-06-22T05:03:15;21.50;99.90
12049;DHT22;6085;49.452;8.502;2023-06-22T05:07:19;21.80;99.90
12049;DHT22;6085;49.452;8.502;2023-06-22T05:11:21;22.00;99.90
12049;DHT22;6085;49.452;8.502;2023-06-22T05:15:23;22.30;99.90
12049;DHT22;6085;49.452;8.502;2023-06-22T05:19:30;22.50;99.90
12049;DHT22;6085;49.452;8.502;2023-06-22T05:23:33;22.70;99.90
12049;DHT22;6085;49.452;8.502;2023-06-22T05:27:36;22.90;99.90
12049;DHT22;6085;49.452;8.502;2023-06-22T05:31:40;23.10;99.90
12049;DHT22;6085;49.452;8.502;2023-06-22T05:35:43;23.50;99.90
12049;DHT22;6085;49.452;8.502;2023-06-22T05:39:45;24.10;99.90
12049;DHT22;6085;49.452;8.502;2023-06-22T05:43:47;25.30;99.90
12049;DHT22;6085;49.452;8.502;2023-06-22T05:47:49;26.60;99.90
12049;DHT22;6085;49.452;8.502;2023-06-22T05:51:52;27.50;99.90
12049;DHT22;6085;49.452;8.502;2023-06-22T05:55:54;28.40;99.90
12049;DHT22;6085;49.452;8.502;2023-06-22T05:59:57;28.90;99.90
12049;DHT22;6085;49.452;8.502;2023-06-22T06:03:58;29.30;99.90
12049;DHT22;6085;49.452;8.502;2023-06-22T06:08:03;29.60;99.90
12049;DHT22;6085;49.452;8.502;2023-06-22T06:12:07;29.40;99.90
12049;DHT22;6085;49.452;8.502;2023-06-22T06:16:09;29.60;99.90
12049;DHT22;6085;49.452;8.502;2023-06-22T06:20:11;29.90;99.90
12049;DHT22;6085;49.452;8.502;2023-06-22T06:24:15;30.40;99.90
12049;DHT22;6085;49.452;8.502;2023-06-22T06:28:17;31.10;99.90
12049;DHT22;6085;49.452;8.502;2023-06-22T06:32:19;31.50;99.90
12049;DHT22;6085;49.452;8.502;2023-06-22T06:36:21;31.80;99.90
12049;DHT22;6085;49.452;8.502;2023-06-22T06:40:25;32.30;99.90
12049;DHT22;6085;49.452;8.502;2023-06-22T06:44:26;32.90;99.90
12049;DHT22;6085;49.452;8.502;2023-06-22T06:48:28;33.60;99.90
12049;DHT22;6085;49.452;8.502;2023-06-22T06:52:30;34.30;99.90
12049;DHT22;6085;49.452;8.502;2023-06-22T06:56:34;34.80;99.90
12049;DHT22;6085;49.452;8.502;2023-06-22T07:00:36;35.90;99.60
12049;DHT22;6085;49.452;8.502;2023-06-22T07:04:38;36.50;97.50
12049;DHT22;6085;49.452;8.502;2023-06-22T07:08:40;36.60;96.30
12049;DHT22;6085;49.452;8.502;2023-06-22T07:12:44;35.80;95.90
12049;DHT22;6085;49.452;8.502;2023-06-22T07:16:46;35.10;96.60
12049;DHT22;6085;49.452;8.502;2023-06-22T07:20:48;35.70;94.20
12049;DHT22;6085;49.452;8.502;2023-06-22T07:24:50;35.20;93.70
12049;DHT22;6085;49.452;8.502;2023-06-22T07:28:54;35.20;92.90
12049;DHT22;6085;49.452;8.502;2023-06-22T07:32:56;35.00;93.00
12049;DHT22;6085;49.452;8.502;2023-06-22T07:36:58;34.70;92.60
12049;DHT22;6085;49.452;8.502;2023-06-22T07:41:00;34.60;93.40
12049;DHT22;6085;49.452;8.502;2023-06-22T07:45:08;35.60;92.20
12049;DHT22;6085;49.452;8.502;2023-06-22T07:49:10;35.60;90.40
12049;DHT22;6085;49.452;8.502;2023-06-22T07:53:12;36.50;87.70
12049;DHT22;6085;49.452;8.502;2023-06-22T07:57:14;37.30;86.00
12049;DHT22;6085;49.452;8.502;2023-06-22T08:01:17;37.50;83.50
12049;DHT22;6085;49.452;8.502;2023-06-22T08:05:21;37.50;81.70
12049;DHT22;6085;49.452;8.502;2023-06-22T08:09:24;37.00;79.90
12049;DHT22;6085;49.452;8.502;2023-06-22T08:13:26;36.90;81.60
12049;DHT22;6085;49.452;8.502;2023-06-22T08:17:29;38.60;78.30
12049;DHT22;6085;49.452;8.502;2023-06-22T08:21:31;39.40;74.50
12049;DHT22;6085;49.452;8.502;2023-06-22T08:25:33;39.60;73.60
12049;DHT22;6085;49.452;8.502;2023-06-22T08:29:35;39.40;71.90
12049;DHT22;6085;49.452;8.502;2023-06-22T08:33:39;39.80;68.40
12049;DHT22;6085;49.452;8.502;2023-06-22T08:37:41;40.90;66.00
12049;DHT22;6085;49.452;8.502;2023-06-22T08:41:43;41.70;64.20
12049;DHT22;6085;49.452;8.502;2023-06-22T08:45:45;42.30;61.10
12049;DHT22;6085;49.452;8.502;2023-06-22T08:49:49;42.30;59.20
12049;DHT22;6085;49.452;8.502;2023-06-22T08:53:51;41.40;60.40
12049;DHT22;6085;49.452;8.502;2023-06-22T08:57:53;41.10;59.20
12049;DHT22;6085;49.452;8.502;2023-06-22T09:01:55;40.60;60.50
12049;DHT22;6085;49.452;8.502;2023-06-22T09:05:59;40.20;61.40
12049;DHT22;6085;49.452;8.502;2023-06-22T09:10:01;40.00;60.20
12049;DHT22;6085;49.452;8.502;2023-06-22T09:14:05;39.00;60.70
12049;DHT22;6085;49.452;8.502;2023-06-22T09:18:10;38.80;60.70
12049;DHT22;6085;49.452;8.502;2023-06-22T09:22:13;39.20;59.40
12049;DHT22;6085;49.452;8.502;2023-06-22T09:26:16;40.00;59.50
12049;DHT22;6085;49.452;8.502;2023-06-22T09:30:18;39.80;59.10
12049;DHT22;6085;49.452;8.502;2023-06-22T09:34:20;39.80;58.80
12049;DHT22;6085;49.452;8.502;2023-06-22T09:38:24;40.20;59.20
12049;DHT22;6085;49.452;8.502;2023-06-22T09:42:26;40.60;58.00
12049;DHT22;6085;49.452;8.502;2023-06-22T09:46:28;40.70;57.70
12049;DHT22;6085;49.452;8.502;2023-06-22T09:50:30;39.90;58.50
12049;DHT22;6085;49.452;8.502;2023-06-22T09:54:33;39.80;59.00
12049;DHT22;6085;49.452;8.502;2023-06-22T09:58:35;40.60;57.60
12049;DHT22;6085;49.452;8.502;2023-06-22T10:02:37;40.80;58.20
12049;DHT22;6085;49.452;8.502;2023-06-22T10:06:39;41.40;56.60
12049;DHT22;6085;49.452;8.502;2023-06-22T10:10:42;41.90;57.00
12049;DHT22;6085;49.452;8.502;2023-06-22T10:14:44;41.70;57.30
12049;DHT22;6085;49.452;8.502;2023-06-22T10:18:46;40.90;57.90
12049;DHT22;6085;49.452;8.502;2023-06-22T10:22:48;39.50;59.90
12049;DHT22;6085;49.452;8.502;2023-06-22T10:26:51;38.30;62.70
12049;DHT22;6085;49.452;8.502;2023-06-22T10:30:55;38.00;63.70
12049;DHT22;6085;49.452;8.502;2023-06-22T10:34:57;38.80;61.80
12049;DHT22;6085;49.452;8.502;2023-06-22T10:38:59;39.30;61.30
12049;DHT22;6085;49.452;8.502;2023-06-22T10:43:03;38.10;62.60
12049;DHT22;6085;49.452;8.502;2023-06-22T10:47:06;37.30;65.00
12049;DHT22;6085;49.452;8.502;2023-06-22T10:51:08;38.20;62.90
12049;DHT22;6085;49.452;8.502;2023-06-22T10:55:10;39.50;61.80
12049;DHT22;6085;49.452;8.502;2023-06-22T10:59:13;40.80;59.30
12049;DHT22;6085;49.452;8.502;2023-06-22T11:03:16;40.00;59.60
12049;DHT22;6085;49.452;8.502;2023-06-22T11:07:18;39.20;60.90
12049;DHT22;6085;49.452;8.502;2023-06-22T11:11:20;37.30;64.70
12049;DHT22;6085;49.452;8.502;2023-06-22T11:15:23;36.60;66.60
12049;DHT22;6085;49.452;8.502;2023-06-22T11:19:25;36.60;66.60
12049;DHT22;6085;49.452;8.502;2023-06-22T11:23:27;37.60;65.60
12049;DHT22;6085;49.452;8.502;2023-06-22T11:27:30;37.70;63.10
12049;DHT22;6085;49.452;8.502;2023-06-22T11:31:34;37.10;64.70
12049;DHT22;6085;49.452;8.502;2023-06-22T11:35:36;37.50;64.60
12049;DHT22;6085;49.452;8.502;2023-06-22T11:39:37;37.80;64.30
12049;DHT22;6085;49.452;8.502;2023-06-22T11:43:39;36.70;66.40
12049;DHT22;6085;49.452;8.502;2023-06-22T11:47:43;35.80;69.00
12049;DHT22;6085;49.452;8.502;2023-06-22T11:51:45;35.20;71.30
12049;DHT22;6085;49.452;8.502;2023-06-22T11:55:47;35.10;70.40
12049;DHT22;6085;49.452;8.502;2023-06-22T11:59:49;35.00;71.20
12049;DHT22;6085;49.452;8.502;2023-06-22T12:03:53;34.80;72.30
12049;DHT22;6085;49.452;8.502;2023-06-22T12:07:55;34.90;71.10
12049;DHT22;6085;49.452;8.502;2023-06-22T12:11:57;34.60;72.20
12049;DHT22;6085;49.452;8.502;2023-06-22T12:15:59;34.30;74.70
12049;DHT22;6085;49.452;8.502;2023-06-22T12:20:03;35.00;71.70
12049;DHT22;6085;49.452;8.502;2023-06-22T12:24:06;34.80;72.70
12049;DHT22;6085;49.452;8.502;2023-06-22T12:28:07;34.80;73.80
12049;DHT22;6085;49.452;8.502;2023-06-22T12:32:09;34.50;74.80
12049;DHT22;6085;49.452;8.502;2023-06-22T12:36:14;34.60;75.90
12049;DHT22;6085;49.452;8.502;2023-06-22T12:40:17;34.50;74.90
12049;DHT22;6085;49.452;8.502;2023-06-22T12:44:19;34.50;74.70
12049;DHT22;6085;49.452;8.502;2023-06-22T12:48:22;34.40;76.70
12049;DHT22;6085;49.452;8.502;2023-06-22T12:52:27;33.80;77.70
12049;DHT22;6085;49.452;8.502;2023-06-22T12:56:29;33.40;78.90
12049;DHT22;6085;49.452;8.502;2023-06-22T13:00:31;33.30;80.50
12049;DHT22;6085;49.452;8.502;2023-06-22T13:04:33;33.10;80.60
12049;DHT22;6085;49.452;8.502;2023-06-22T13:08:39;32.40;82.70
12049;DHT22;6085;49.452;8.502;2023-06-22T13:12:41;32.30;84.90
12049;DHT22;6085;49.452;8.502;2023-06-22T13:16:43;32.50;85.10
12049;DHT22;6085;49.452;8.502;2023-06-22T13:20:45;32.80;82.50
12049;DHT22;6085;49.452;8.502;2023-06-22T13:24:48;32.80;84.30
12049;DHT22;6085;49.452;8.502;2023-06-22T13:28:50;33.00;84.40
12049;DHT22;6085;49.452;8.502;2023-06-22T13:32:52;33.40;82.80
12049;DHT22;6085;49.452;8.502;2023-06-22T13:36:54;33.40;82.20
12049;DHT22;6085;49.452;8.502;2023-06-22T13:40:57;33.30;83.00
12049;DHT22;6085;49.452;8.502;2023-06-22T13:45:00;33.10;82.50
12049;DHT22;6085;49.452;8.502;2023-06-22T13:49:02;32.80;83.60
12049;DHT22;6085;49.452;8.502;2023-06-22T13:53:04;32.50;84.60
12049;DHT22;6085;49.452;8.502;2023-06-22T13:57:07;32.70;86.40
12049;DHT22;6085;49.452;8.502;2023-06-22T14:01:09;32.80;85.00
12049;DHT22;6085;49.452;8.502;2023-06-22T14:05:11;32.50;85.40
12049;DHT22;6085;49.452;8.502;2023-06-22T14:09:13;32.20;86.30
12049;DHT22;6085;49.452;8.502;2023-06-22T14:13:23;31.80;88.10
12049;DHT22;6085;49.452;8.502;2023-06-22T14:17:25;31.50;89.90
12049;DHT22;6085;49.452;8.502;2023-06-22T14:21:27;31.20;91.60
12049;DHT22;6085;49.452;8.502;2023-06-22T14:25:32;30.90;92.40
12049;DHT22;6085;49.452;8.502;2023-06-22T14:29:36;30.60;93.60
12049;DHT22;6085;49.452;8.502;2023-06-22T14:33:38;30.40;94.80
12049;DHT22;6085;49.452;8.502;2023-06-22T14:37:40;30.30;97.40
12049;DHT22;6085;49.452;8.502;2023-06-22T14:41:42;30.20;99.90
12049;DHT22;6085;49.452;8.502;2023-06-22T14:45:45;30.10;99.90
12049;DHT22;6085;49.452;8.502;2023-06-22T14:49:48;30.00;99.90
12049;DHT22;6085;49.452;8.502;2023-06-22T14:53:50;30.00;99.90
12049;DHT22;6085;49.452;8.502;2023-06-22T14:57:52;30.10;99.90
12049;DHT22;6085;49.452;8.502;2023-06-22T15:01:56;30.00;99.90
12049;DHT22;6085;49.452;8.502;2023-06-22T15:05:58;30.00;99.90
12049;DHT22;6085;49.452;8.502;2023-06-22T15:10:00;29.90;99.90
12049;DHT22;6085;49.452;8.502;2023-06-22T15:14:02;30.00;99.90
12049;DHT22;6085;49.452;8.502;2023-06-22T15:18:05;30.10;99.90
12049;DHT22;6085;49.452;8.502;2023-06-22T15:22:08;30.30;99.90
12049;DHT22;6085;49.452;8.502;2023-06-22T15:26:10;30.60;99.90
12049;DHT22;6085;49.452;8.502;2023-06-22T15:30:12;30.80;99.90
12049;DHT22;6085;49.452;8.502;2023-06-22T15:34:15;30.90;99.90
12049;DHT22;6085;49.452;8.502;2023-06-22T15:38:21;30.80;99.90
12049;DHT22;6085;49.452;8.502;2023-06-22T15:42:33;30.40;99.90
12049;DHT22;6085;49.452;8.502;2023-06-22T15:46:36;29.90;99.90
12049;DHT22;6085;49.452;8.502;2023-06-22T15:50:39;29.80;99.90
12049;DHT22;6085;49.452;8.502;2023-06-22T15:54:41;29.70;99.90
12049;DHT22;6085;49.452;8.502;2023-06-22T15:58:43;29.60;99.90
12049;DHT22;6085;49.452;8.502;2023-06-22T16:02:46;29.60;99.90
12049;DHT22;6085;49.452;8.502;2023-06-22T16:06:49;29.80;99.90
12049;DHT22;6085;49.452;8.502;2023-06-22T16:10:51;30.00;99.90
12049;DHT22;6085;49.452;8.502;2023-06-22T16:14:53;30.10;99.90
12049;DHT22;6085;49.452;8.502;2023-06-22T16:18:55;30.10;99.90
12049;DHT22;6085;49.452;8.502;2023-06-22T16:22:58;29.80;99.90
12049;DHT22;6085;49.452;8.502;2023-06-22T16:27:00;29.50;99.90
12049;DHT22;6085;49.452;8.502;2023-06-22T16:31:02;29.20;99.90
12049;DHT22;6085;49.452;8.502;2023-06-22T16:35:05;29.00;99.90
12049;DHT22;6085;49.452;8.502;2023-06-22T16:39:08;28.90;99.90
12049;DHT22;6085;49.452;8.502;2023-06-22T16:43:10;28.90;99.90
12049;DHT22;6085;49.452;8.502;2023-06-22T16:47:12;28.90;99.90
12049;DHT22;6085;49.452;8.502;2023-06-22T16:51:14;28.90;99.90
12049;DHT22;6085;49.452;8.502;2023-06-22T16:55:21;28.90;99.90
12049;DHT22;6085;49.452;8.502;2023-06-22T16:59:24;29.00;99.90
12049;DHT22;6085;49.452;8.502;2023-06-22T17:03:28;29.00;99.90
12049;DHT22;6085;49.452;8.502;2023-06-22T17:07:33;29.10;99.90
12049;DHT22;6085;49.452;8.502;2023-06-22T17:11:37;29.00;99.90
12049;DHT22;6085;49.452;8.502;2023-06-22T17:15:40;28.90;99.90
12049;DHT22;6085;49.452;8.502;2023-06-22T17:19:44;28.60;99.90
12049;DHT22;6085;49.452;8.502;2023-06-22T17:23:48;28.40;99.90
12049;DHT22;6085;49.452;8.502;2023-06-22T17:28:00;28.40;99.90
12049;DHT22;6085;49.452;8.502;2023-06-22T17:32:04;28.80;99.90
12049;DHT22;6085;49.452;8.502;2023-06-22T17:36:13;29.40;99.90
12049;DHT22;6085;49.452;8.502;2023-06-22T17:40:16;30.00;99.90
12049;DHT22;6085;49.452;8.502;2023-06-22T17:44:21;30.10;99.90
12049;DHT22;6085;49.452;8.502;2023-06-22T17:48:23;29.90;99.90
12049;DHT22;6085;49.452;8.502;2023-06-22T17:52:27;29.60;99.90
12049;DHT22;6085;49.452;8.502;2023-06-22T17:56:29;29.30;99.90
12049;DHT22;6085;49.452;8.502;2023-06-22T18:00:33;29.10;99.90
12049;DHT22;6085;49.452;8.502;2023-06-22T18:04:35;28.80;99.90
12049;DHT22;6085;49.452;8.502;2023-06-22T18:08:37;28.60;99.90
12049;DHT22;6085;49.452;8.502;2023-06-22T18:12:39;28.40;99.90
12049;DHT22;6085;49.452;8.502;2023-06-22T18:16:45;28.20;99.90
12049;DHT22;6085;49.452;8.502;2023-06-22T18:20:47;28.10;99.90
12049;DHT22;6085;49.452;8.502;2023-06-22T18:24:49;28.00;99.90
12049;DHT22;6085;49.452;8.502;2023-06-22T18:28:51;27.80;99.90
12049;DHT22;6085;49.452;8.502;2023-06-22T18:32:56;27.80;99.90
12049;DHT22;6085;49.452;8.502;2023-06-22T18:37:00;27.70;99.90
12049;DHT22;6085;49.452;8.502;2023-06-22T18:41:05;27.70;99.90
12049;DHT22;6085;49.452;8.502;2023-06-22T18:45:21;27.70;99.90
12049;DHT22;6085;49.452;8.502;2023-06-22T18:49:30;27.70;99.90
12049;DHT22;6085;49.452;8.502;2023-06-22T18:53:33;27.70;99.90
12049;DHT22;6085;49.452;8.502;2023-06-22T18:57:35;27.60;99.90
12049;DHT22;6085;49.452;8.502;2023-06-22T19:01:37;27.60;99.90
12049;DHT22;6085;49.452;8.502;2023-06-22T19:05:42;27.50;99.90
12049;DHT22;6085;49.452;8.502;2023-06-22T19:10:22;27.50;99.90
12049;DHT22;6085;49.452;8.502;2023-06-22T19:14:24;27.40;99.90
12049;DHT22;6085;49.452;8.502;2023-06-22T19:18:31;27.20;99.90
12049;DHT22;6085;49.452;8.502;2023-06-22T19:22:45;27.10;99.90
12049;DHT22;6085;49.452;8.502;2023-06-22T19:26:50;26.90;99.90
12049;DHT22;6085;49.452;8.502;2023-06-22T19:30:54;26.80;99.90
12049;DHT22;6085;49.452;8.502;2023-06-22T19:34:56;26.60;99.90
12049;DHT22;6085;49.452;8.502;2023-06-22T19:39:00;26.40;99.90
12049;DHT22;6085;49.452;8.502;2023-06-22T19:43:02;26.10;99.90
12049;DHT22;6085;49.452;8.502;2023-06-22T19:47:08;25.90;99.90
12049;DHT22;6085;49.452;8.502;2023-06-22T19:51:10;25.80;99.90
12049;DHT22;6085;49.452;8.502;2023-06-22T19:55:14;25.70;99.90
12049;DHT22;6085;49.452;8.502;2023-06-22T19:59:16;25.70;99.90
12049;DHT22;6085;49.452;8.502;2023-06-22T20:03:25;25.60;99.90
12049;DHT22;6085;49.452;8.502;2023-06-22T20:07:35;25.50;99.90
12049;DHT22;6085;49.452;8.502;2023-06-22T20:11:39;25.30;99.90
12049;DHT22;6085;49.452;8.502;2023-06-22T20:15:41;25.20;99.90
12049;DHT22;6085;49.452;8.502;2023-06-22T20:19:43;25.10;99.90
12049;DHT22;6085;49.452;8.502;2023-06-22T20:23:46;24.90;99.90
12049;DHT22;6085;49.452;8.502;2023-06-22T20:27:49;24.70;99.90
12049;DHT22;6085;49.452;8.502;2023-06-22T20:32:02;24.40;99.90
12049;DHT22;6085;49.452;8.502;2023-06-22T20:36:06;24.20;99.90
12049;DHT22;6085;49.452;8.502;2023-06-22T20:40:09;24.00;99.90
12049;DHT22;6085;49.452;8.502;2023-06-22T20:44:12;23.90;99.90
12049;DHT22;6085;49.452;8.502;2023-06-22T20:48:14;23.80;99.90
12049;DHT22;6085;49.452;8.502;2023-06-22T20:52:16;23.70;99.90
12049;DHT22;6085;49.452;8.502;2023-06-22T20:56:19;23.60;99.90
12049;DHT22;6085;49.452;8.502;2023-06-22T21:00:23;23.50;99.90
12049;DHT22;6085;49.452;8.502;2023-06-22T21:04:25;23.40;99.90
12049;DHT22;6085;49.452;8.502;2023-06-22T21:08:27;23.30;99.90
12049;DHT22;6085;49.452;8.502;2023-06-22T21:12:29;23.20;99.90
12049;DHT22;6085;49.452;8.502;2023-06-22T21:16:35;23.20;99.90
12049;DHT22;6085;49.452;8.502;2023-06-22T21:20:37;23.10;99.90
12049;DHT22;6085;49.452;8.502;2023-06-22T21:24:39;23.10;99.90
12049;DHT22;6085;49.452;8.502;2023-06-22T21:28:41;23.00;99.90
12049;DHT22;6085;49.452;8.502;2023-06-22T21:32:44;23.00;99.90
12049;DHT22;6085;49.452;8.502;2023-06-22T21:36:46;23.00;99.90
12049;DHT22;6085;49.452;8.502;2023-06-22T21:40:48;22.90;99.90
12049;DHT22;6085;49.452;8.502;2023-06-22T21:44:50;22.80;99.90
12049;DHT22;6085;49.452;8.502;2023-06-22T21:48:53;22.80;99.90
12049;DHT22;6085;49.452;8.502;2023-06-22T21:52:56;22.70;99.90
12049;DHT22;6085;49.452;8.502;2023-06-22T21:56:57;22.70;99.90
12049;DHT22;6085;49.452;8.502;2023-06-22T22:00:59;22.60;99.90
12049;DHT22;6085;49.452;8.502;2023-06-22T22:05:03;22.60;99.90
12049;DHT22;6085;49.452;8.502;2023-06-22T22:09:05;22.60;99.90
12049;DHT22;6085;49.452;8.502;2023-06-22T22:13:07;22.60;99.90
12049;DHT22;6085;49.452;8.502;2023-06-22T22:17:11;22.60;99.90
12049;DHT22;6085;49.452;8.502;2023-06-22T22:21:15;22.60;99.90
12049;DHT22;6085;49.452;8.502;2023-06-22T22:25:17;22.50;99.90
12049;DHT22;6085;49.452;8.502;2023-06-22T22:29:19;22.50;99.90
12049;DHT22;6085;49.452;8.502;2023-06-22T22:33:21;22.40;99.90
12049;DHT22;6085;49.452;8.502;2023-06-22T22:37:24;22.30;99.90
12049;DHT22;6085;49.452;8.502;2023-06-22T22:41:26;22.30;99.90
12049;DHT22;6085;49.452;8.502;2023-06-22T22:45:29;22.20;99.90
12049;DHT22;6085;49.452;8.502;2023-06-22T22:49:31;22.10;99.90
12049;DHT22;6085;49.452;8.502;2023-06-22T22:53:35;22.10;99.90
12049;DHT22;6085;49.452;8.502;2023-06-22T22:57:37;22.10;99.90
12049;DHT22;6085;49.452;8.502;2023-06-22T23:01:39;22.10;99.90
12049;DHT22;6085;49.452;8.502;2023-06-22T23:05:41;22.10;99.90
12049;DHT22;6085;49.452;8.502;2023-06-22T23:09:44;22.10;99.90
12049;DHT22;6085;49.452;8.502;2023-06-22T23:13:46;22.10;99.90
12049;DHT22;6085;49.452;8.502;2023-06-22T23:17:48;22.00;99.90
12049;DHT22;6085;49.452;8.502;2023-06-22T23:21:51;21.90;99.90
12049;DHT22;6085;49.452;8.502;2023-06-22T23:25:54;21.80;99.90
12049;DHT22;6085;49.452;8.502;2023-06-22T23:29:56;21.70;99.90
12049;DHT22;6085;49.452;8.502;2023-06-22T23:33:58;21.60;99.90
12049;DHT22;6085;49.452;8.502;2023-06-22T23:38:03;21.40;99.90
12049;DHT22;6085;49.452;8.502;2023-06-22T23:42:07;21.30;99.90
12049;DHT22;6085;49.452;8.502;2023-06-22T23:46:11;21.20;99.90
12049;DHT22;6085;49.452;8.502;2023-06-22T23:50:13;21.20;99.90
12049;DHT22;6085;49.452;8.502;2023-06-22T23:54:15;21.10;99.90
12049;DHT22;6085;49.452;8.502;2023-06-22T23:58:19;21.00;99.90
